sensor_id;sensor_type;location;lat;lon;timestamp;temperature;humidity
12746;DHT22;6437;53.686;10.030;2022-11-15T00:00:28;7.80;99.90
12746;DHT22;6437;53.686;10.030;2022-11-15T00:03:30;7.80;99.90
12746;DHT22;6437;53.686;10.030;2022-11-15T00:06:33;7.80;99.90
12746;DHT22;6437;53.686;10.030;2022-11-15T00:09:35;7.80;99.90
12746;DHT22;6437;53.686;10.030;2022-11-15T00:12:37;7.80;99.90
12746;DHT22;6437;53.686;10.030;2022-11-15T00:15:40;7.80;99.90
12746;DHT22;6437;53.686;10.030;2022-11-15T00:18:42;7.80;99.90
12746;DHT22;6437;53.686;10.030;2022-11-15T00:21:45;7.70;99.90
12746;DHT22;6437;53.686;10.030;2022-11-15T00:24:47;7.70;99.90
12746;DHT22;6437;53.686;10.030;2022-11-15T00:27:49;7.70;99.90
12746;DHT22;6437;53.686;10.030;2022-11-15T00:30:52;7.70;99.90
12746;DHT22;6437;53.686;10.030;2022-11-15T00:33:53;7.70;99.90
12746;DHT22;6437;53.686;10.030;2022-11-15T00:37:06;7.70;99.90
12746;DHT22;6437;53.686;10.030;2022-11-15T00:40:09;7.70;99.90
12746;DHT22;6437;53.686;10.030;2022-11-15T00:43:13;7.60;99.90
12746;DHT22;6437;53.686;10.030;2022-11-15T00:46:20;7.60;99.90
12746;DHT22;6437;53.686;10.030;2022-11-15T00:49:22;7.60;99.90
12746;DHT22;6437;53.686;10.030;2022-11-15T00:52:25;7.60;99.90
12746;DHT22;6437;53.686;10.030;2022-11-15T00:55:26;7.60;99.90
12746;DHT22;6437;53.686;10.030;2022-11-15T00:58:28;7.60;99.90
12746;DHT22;6437;53.686;10.030;2022-11-15T01:01:30;7.60;99.90
12746;DHT22;6437;53.686;10.030;2022-11-15T01:04:32;6.70;99.90
12746;DHT22;6437;53.686;10.030;2022-11-15T01:07:35;7.50;99.90
12746;DHT22;6437;53.686;10.030;2022-11-15T01:10:37;7.50;99.90
12746;DHT22;6437;53.686;10.030;2022-11-15T01:13:39;7.50;99.90
12746;DHT22;6437;53.686;10.030;2022-11-15T01:16:41;7.50;99.90
12746;DHT22;6437;53.686;10.030;2022-11-15T01:19:43;7.50;99.90
12746;DHT22;6437;53.686;10.030;2022-11-15T01:22:46;7.50;99.90
12746;DHT22;6437;53.686;10.030;2022-11-15T01:25:48;7.50;99.90
12746;DHT22;6437;53.686;10.030;2022-11-15T01:28:50;7.50;99.90
12746;DHT22;6437;53.686;10.030;2022-11-15T01:31:53;7.50;99.90
12746;DHT22;6437;53.686;10.030;2022-11-15T01:34:55;7.40;99.90
12746;DHT22;6437;53.686;10.030;2022-11-15T01:37:58;7.50;99.90
12746;DHT22;6437;53.686;10.030;2022-11-15T01:41:00;7.40;99.90
12746;DHT22;6437;53.686;10.030;2022-11-15T01:44:43;7.40;99.90
12746;DHT22;6437;53.686;10.030;2022-11-15T01:47:47;6.40;99.90
12746;DHT22;6437;53.686;10.030;2022-11-15T01:50:50;7.40;99.90
12746;DHT22;6437;53.686;10.030;2022-11-15T01:53:56;7.40;99.90
12746;DHT22;6437;53.686;10.030;2022-11-15T01:57:03;7.40;99.90
12746;DHT22;6437;53.686;10.030;2022-11-15T02:00:09;7.40;99.90
12746;DHT22;6437;53.686;10.030;2022-11-15T02:03:11;7.40;99.90
12746;DHT22;6437;53.686;10.030;2022-11-15T02:06:13;7.80;99.90
12746;DHT22;6437;53.686;10.030;2022-11-15T02:09:17;7.40;99.90
12746;DHT22;6437;53.686;10.030;2022-11-15T02:12:21;7.30;99.90
12746;DHT22;6437;53.686;10.030;2022-11-15T02:15:25;7.30;99.90
12746;DHT22;6437;53.686;10.030;2022-11-15T02:18:32;7.30;99.90
12746;DHT22;6437;53.686;10.030;2022-11-15T02:21:38;7.30;99.90
12746;DHT22;6437;53.686;10.030;2022-11-15T02:25:01;7.30;99.90
12746;DHT22;6437;53.686;10.030;2022-11-15T02:28:21;7.20;99.90
12746;DHT22;6437;53.686;10.030;2022-11-15T02:31:32;7.20;99.90
12746;DHT22;6437;53.686;10.030;2022-11-15T02:34:43;7.20;99.90
12746;DHT22;6437;53.686;10.030;2022-11-15T02:37:54;7.20;99.90
12746;DHT22;6437;53.686;10.030;2022-11-15T02:41:00;7.20;99.90
12746;DHT22;6437;53.686;10.030;2022-11-15T02:44:07;7.10;99.90
12746;DHT22;6437;53.686;10.030;2022-11-15T02:47:16;7.10;99.90
12746;DHT22;6437;53.686;10.030;2022-11-15T02:50:21;7.50;99.90
12746;DHT22;6437;53.686;10.030;2022-11-15T02:53:25;7.10;99.90
12746;DHT22;6437;53.686;10.030;2022-11-15T02:56:27;7.00;99.90
12746;DHT22;6437;53.686;10.030;2022-11-15T02:59:47;7.00;99.90
12746;DHT22;6437;53.686;10.030;2022-11-15T03:03:20;7.00;99.90
12746;DHT22;6437;53.686;10.030;2022-11-15T03:06:33;7.00;99.90
12746;DHT22;6437;53.686;10.030;2022-11-15T03:09:42;7.00;99.90
12746;DHT22;6437;53.686;10.030;2022-11-15T03:12:51;7.00;99.90
12746;DHT22;6437;53.686;10.030;2022-11-15T03:16:01;6.90;99.90
12746;DHT22;6437;53.686;10.030;2022-11-15T03:19:13;6.90;99.90
12746;DHT22;6437;53.686;10.030;2022-11-15T03:22:17;6.90;99.90
12746;DHT22;6437;53.686;10.030;2022-11-15T03:25:24;6.90;99.90
12746;DHT22;6437;53.686;10.030;2022-11-15T03:28:32;6.20;99.90
12746;DHT22;6437;53.686;10.030;2022-11-15T03:31:44;6.90;99.90
12746;DHT22;6437;53.686;10.030;2022-11-15T03:34:53;6.90;99.90
12746;DHT22;6437;53.686;10.030;2022-11-15T03:38:00;6.90;99.90
12746;DHT22;6437;53.686;10.030;2022-11-15T03:41:07;6.90;99.90
12746;DHT22;6437;53.686;10.030;2022-11-15T03:44:15;7.00;99.90
12746;DHT22;6437;53.686;10.030;2022-11-15T03:47:23;6.90;99.90
12746;DHT22;6437;53.686;10.030;2022-11-15T03:50:28;6.90;99.90
12746;DHT22;6437;53.686;10.030;2022-11-15T03:53:33;6.90;99.90
12746;DHT22;6437;53.686;10.030;2022-11-15T03:56:35;6.90;99.90
12746;DHT22;6437;53.686;10.030;2022-11-15T03:59:36;6.90;99.90
12746;DHT22;6437;53.686;10.030;2022-11-15T04:02:38;6.50;99.90
12746;DHT22;6437;53.686;10.030;2022-11-15T04:05:41;6.90;99.90
12746;DHT22;6437;53.686;10.030;2022-11-15T04:08:43;6.90;99.90
12746;DHT22;6437;53.686;10.030;2022-11-15T04:11:45;6.90;99.90
12746;DHT22;6437;53.686;10.030;2022-11-15T04:14:47;7.00;99.90
12746;DHT22;6437;53.686;10.030;2022-11-15T04:18:07;7.00;99.90
12746;DHT22;6437;53.686;10.030;2022-11-15T04:21:10;7.00;99.90
12746;DHT22;6437;53.686;10.030;2022-11-15T04:24:29;7.00;99.90
12746;DHT22;6437;53.686;10.030;2022-11-15T04:27:31;7.00;99.90
12746;DHT22;6437;53.686;10.030;2022-11-15T04:30:33;7.00;99.90
12746;DHT22;6437;53.686;10.030;2022-11-15T04:33:35;7.00;99.90
12746;DHT22;6437;53.686;10.030;2022-11-15T04:36:38;7.00;99.90
12746;DHT22;6437;53.686;10.030;2022-11-15T04:39:58;7.00;99.90
12746;DHT22;6437;53.686;10.030;2022-11-15T04:42:59;7.10;99.90
12746;DHT22;6437;53.686;10.030;2022-11-15T04:46:02;7.10;99.90
12746;DHT22;6437;53.686;10.030;2022-11-15T04:49:04;7.10;99.90
12746;DHT22;6437;53.686;10.030;2022-11-15T04:52:07;6.40;99.90
12746;DHT22;6437;53.686;10.030;2022-11-15T04:55:09;8.10;99.90
12746;DHT22;6437;53.686;10.030;2022-11-15T04:58:11;7.10;99.90
12746;DHT22;6437;53.686;10.030;2022-11-15T05:01:20;7.10;99.90
12746;DHT22;6437;53.686;10.030;2022-11-15T05:04:24;7.20;99.90
12746;DHT22;6437;53.686;10.030;2022-11-15T05:07:26;7.20;99.90
12746;DHT22;6437;53.686;10.030;2022-11-15T05:10:28;7.20;99.90
12746;DHT22;6437;53.686;10.030;2022-11-15T05:13:30;7.20;99.90
12746;DHT22;6437;53.686;10.030;2022-11-15T05:16:32;7.20;99.90
12746;DHT22;6437;53.686;10.030;2022-11-15T05:19:34;7.20;99.90
12746;DHT22;6437;53.686;10.030;2022-11-15T05:22:37;7.20;99.90
12746;DHT22;6437;53.686;10.030;2022-11-15T05:25:39;7.20;99.90
12746;DHT22;6437;53.686;10.030;2022-11-15T05:28:41;7.20;99.90
12746;DHT22;6437;53.686;10.030;2022-11-15T05:31:46;7.30;99.90
12746;DHT22;6437;53.686;10.030;2022-11-15T05:34:47;7.30;99.90
12746;DHT22;6437;53.686;10.030;2022-11-15T05:37:51;7.30;99.90
12746;DHT22;6437;53.686;10.030;2022-11-15T05:40:53;7.30;99.90
12746;DHT22;6437;53.686;10.030;2022-11-15T05:43:56;7.30;99.90
12746;DHT22;6437;53.686;10.030;2022-11-15T05:46:58;7.30;99.90
12746;DHT22;6437;53.686;10.030;2022-11-15T05:50:01;7.30;99.90
12746;DHT22;6437;53.686;10.030;2022-11-15T05:53:04;7.40;99.90
12746;DHT22;6437;53.686;10.030;2022-11-15T05:56:09;7.30;99.90
12746;DHT22;6437;53.686;10.030;2022-11-15T05:59:11;7.30;99.90
12746;DHT22;6437;53.686;10.030;2022-11-15T06:02:13;7.30;99.90
12746;DHT22;6437;53.686;10.030;2022-11-15T06:05:15;7.30;99.90
12746;DHT22;6437;53.686;10.030;2022-11-15T06:08:18;7.40;99.90
12746;DHT22;6437;53.686;10.030;2022-11-15T06:11:20;7.40;99.90
12746;DHT22;6437;53.686;10.030;2022-11-15T06:14:22;7.40;99.90
12746;DHT22;6437;53.686;10.030;2022-11-15T06:17:23;7.40;99.90
12746;DHT22;6437;53.686;10.030;2022-11-15T06:20:26;7.40;99.90
12746;DHT22;6437;53.686;10.030;2022-11-15T06:23:32;7.50;99.90
12746;DHT22;6437;53.686;10.030;2022-11-15T06:26:34;7.50;99.90
12746;DHT22;6437;53.686;10.030;2022-11-15T06:29:36;7.40;99.90
12746;DHT22;6437;53.686;10.030;2022-11-15T06:32:38;7.50;99.90
12746;DHT22;6437;53.686;10.030;2022-11-15T06:35:39;7.50;99.90
12746;DHT22;6437;53.686;10.030;2022-11-15T06:38:43;7.50;99.90
12746;DHT22;6437;53.686;10.030;2022-11-15T06:41:45;7.60;99.90
12746;DHT22;6437;53.686;10.030;2022-11-15T06:44:46;7.60;99.90
12746;DHT22;6437;53.686;10.030;2022-11-15T06:47:48;7.50;99.90
12746;DHT22;6437;53.686;10.030;2022-11-15T06:50:51;7.60;99.90
12746;DHT22;6437;53.686;10.030;2022-11-15T06:53:54;7.60;99.90
12746;DHT22;6437;53.686;10.030;2022-11-15T06:56:56;7.60;99.90
12746;DHT22;6437;53.686;10.030;2022-11-15T06:59:58;7.60;99.90
12746;DHT22;6437;53.686;10.030;2022-11-15T07:03:00;7.60;99.90
12746;DHT22;6437;53.686;10.030;2022-11-15T07:06:02;7.60;99.90
12746;DHT22;6437;53.686;10.030;2022-11-15T07:09:05;7.70;99.90
12746;DHT22;6437;53.686;10.030;2022-11-15T07:12:07;7.70;99.90
12746;DHT22;6437;53.686;10.030;2022-11-15T07:15:09;7.70;99.90
12746;DHT22;6437;53.686;10.030;2022-11-15T07:18:11;7.40;99.90
12746;DHT22;6437;53.686;10.030;2022-11-15T07:21:13;7.70;99.90
12746;DHT22;6437;53.686;10.030;2022-11-15T07:24:17;7.70;99.90
12746;DHT22;6437;53.686;10.030;2022-11-15T07:27:19;7.70;99.90
12746;DHT22;6437;53.686;10.030;2022-11-15T07:30:24;7.80;99.90
12746;DHT22;6437;53.686;10.030;2022-11-15T07:33:26;7.80;99.90
12746;DHT22;6437;53.686;10.030;2022-11-15T07:36:28;7.80;99.90
12746;DHT22;6437;53.686;10.030;2022-11-15T07:39:31;7.90;99.90
12746;DHT22;6437;53.686;10.030;2022-11-15T07:42:33;7.90;99.90
12746;DHT22;6437;53.686;10.030;2022-11-15T07:45:52;7.90;99.90
12746;DHT22;6437;53.686;10.030;2022-11-15T07:48:54;7.90;99.90
12746;DHT22;6437;53.686;10.030;2022-11-15T07:51:56;7.90;99.90
12746;DHT22;6437;53.686;10.030;2022-11-15T07:54:59;8.00;99.90
12746;DHT22;6437;53.686;10.030;2022-11-15T07:58:06;8.00;99.90
12746;DHT22;6437;53.686;10.030;2022-11-15T08:01:09;7.90;99.90
12746;DHT22;6437;53.686;10.030;2022-11-15T08:04:12;8.00;99.90
12746;DHT22;6437;53.686;10.030;2022-11-15T08:07:14;8.00;99.90
12746;DHT22;6437;53.686;10.030;2022-11-15T08:10:20;8.00;99.90
12746;DHT22;6437;53.686;10.030;2022-11-15T08:13:21;8.10;99.90
12746;DHT22;6437;53.686;10.030;2022-11-15T08:16:23;8.10;99.90
12746;DHT22;6437;53.686;10.030;2022-11-15T08:19:25;8.20;99.90
12746;DHT22;6437;53.686;10.030;2022-11-15T08:22:27;8.20;99.90
12746;DHT22;6437;53.686;10.030;2022-11-15T08:25:31;8.20;99.90
12746;DHT22;6437;53.686;10.030;2022-11-15T08:28:36;8.20;99.90
12746;DHT22;6437;53.686;10.030;2022-11-15T08:31:38;8.20;99.90
12746;DHT22;6437;53.686;10.030;2022-11-15T08:34:40;8.20;99.90
12746;DHT22;6437;53.686;10.030;2022-11-15T08:37:41;8.20;99.90
12746;DHT22;6437;53.686;10.030;2022-11-15T08:40:45;8.30;99.90
12746;DHT22;6437;53.686;10.030;2022-11-15T08:43:47;8.30;99.90
12746;DHT22;6437;53.686;10.030;2022-11-15T08:46:49;8.30;99.90
12746;DHT22;6437;53.686;10.030;2022-11-15T08:49:51;8.30;99.90
12746;DHT22;6437;53.686;10.030;2022-11-15T08:52:55;8.40;99.90
12746;DHT22;6437;53.686;10.030;2022-11-15T08:55:59;8.40;99.90
12746;DHT22;6437;53.686;10.030;2022-11-15T08:59:04;8.40;99.90
12746;DHT22;6437;53.686;10.030;2022-11-15T09:02:06;8.40;99.90
12746;DHT22;6437;53.686;10.030;2022-11-15T09:05:08;8.50;99.90
12746;DHT22;6437;53.686;10.030;2022-11-15T09:08:10;8.50;99.90
12746;DHT22;6437;53.686;10.030;2022-11-15T09:11:14;8.50;99.90
12746;DHT22;6437;53.686;10.030;2022-11-15T09:14:20;8.50;99.90
12746;DHT22;6437;53.686;10.030;2022-11-15T09:17:22;8.50;99.90
12746;DHT22;6437;53.686;10.030;2022-11-15T09:20:24;8.60;99.90
12746;DHT22;6437;53.686;10.030;2022-11-15T09:23:27;8.60;99.90
12746;DHT22;6437;53.686;10.030;2022-11-15T09:26:32;8.60;99.90
12746;DHT22;6437;53.686;10.030;2022-11-15T09:29:34;8.60;99.90
12746;DHT22;6437;53.686;10.030;2022-11-15T09:32:36;8.60;99.90
12746;DHT22;6437;53.686;10.030;2022-11-15T09:35:38;8.60;99.90
12746;DHT22;6437;53.686;10.030;2022-11-15T09:38:41;8.60;99.90
12746;DHT22;6437;53.686;10.030;2022-11-15T09:42:08;8.70;99.90
12746;DHT22;6437;53.686;10.030;2022-11-15T09:45:20;8.70;99.90
12746;DHT22;6437;53.686;10.030;2022-11-15T09:48:48;8.80;99.90
12746;DHT22;6437;53.686;10.030;2022-11-15T09:51:53;9.60;99.90
12746;DHT22;6437;53.686;10.030;2022-11-15T09:54:55;8.80;99.90
12746;DHT22;6437;53.686;10.030;2022-11-15T09:58:03;8.90;99.90
12746;DHT22;6437;53.686;10.030;2022-11-15T10:01:22;8.90;99.90
12746;DHT22;6437;53.686;10.030;2022-11-15T10:04:27;9.00;99.90
12746;DHT22;6437;53.686;10.030;2022-11-15T10:07:36;9.00;99.90
12746;DHT22;6437;53.686;10.030;2022-11-15T10:10:43;9.00;99.90
12746;DHT22;6437;53.686;10.030;2022-11-15T10:13:49;9.10;99.90
12746;DHT22;6437;53.686;10.030;2022-11-15T10:17:37;9.10;99.90
12746;DHT22;6437;53.686;10.030;2022-11-15T10:20:48;9.10;99.90
12746;DHT22;6437;53.686;10.030;2022-11-15T10:23:50;9.10;99.90
12746;DHT22;6437;53.686;10.030;2022-11-15T10:26:58;9.20;99.90
12746;DHT22;6437;53.686;10.030;2022-11-15T10:30:11;9.20;99.90
12746;DHT22;6437;53.686;10.030;2022-11-15T10:33:30;9.30;99.90
12746;DHT22;6437;53.686;10.030;2022-11-15T10:36:34;9.30;99.90
12746;DHT22;6437;53.686;10.030;2022-11-15T10:39:36;9.30;99.90
12746;DHT22;6437;53.686;10.030;2022-11-15T10:42:37;9.30;99.90
12746;DHT22;6437;53.686;10.030;2022-11-15T10:45:41;9.40;99.90
12746;DHT22;6437;53.686;10.030;2022-11-15T10:48:43;9.40;99.90
12746;DHT22;6437;53.686;10.030;2022-11-15T10:51:48;9.50;99.90
12746;DHT22;6437;53.686;10.030;2022-11-15T10:54:53;9.50;99.90
12746;DHT22;6437;53.686;10.030;2022-11-15T10:58:01;9.50;99.90
12746;DHT22;6437;53.686;10.030;2022-11-15T11:01:16;9.60;99.90
12746;DHT22;6437;53.686;10.030;2022-11-15T11:04:18;9.60;99.90
12746;DHT22;6437;53.686;10.030;2022-11-15T11:07:21;9.60;99.90
12746;DHT22;6437;53.686;10.030;2022-11-15T11:10:23;9.60;99.90
12746;DHT22;6437;53.686;10.030;2022-11-15T11:13:27;9.70;99.90
12746;DHT22;6437;53.686;10.030;2022-11-15T11:16:42;9.70;99.90
12746;DHT22;6437;53.686;10.030;2022-11-15T11:20:00;9.70;99.90
12746;DHT22;6437;53.686;10.030;2022-11-15T11:23:23;9.80;99.90
12746;DHT22;6437;53.686;10.030;2022-11-15T11:26:39;9.80;99.90
12746;DHT22;6437;53.686;10.030;2022-11-15T11:29:52;9.80;99.90
12746;DHT22;6437;53.686;10.030;2022-11-15T11:33:08;9.90;99.90
12746;DHT22;6437;53.686;10.030;2022-11-15T11:36:20;9.90;99.90
12746;DHT22;6437;53.686;10.030;2022-11-15T11:39:30;10.00;99.90
12746;DHT22;6437;53.686;10.030;2022-11-15T11:42:46;10.10;99.90
12746;DHT22;6437;53.686;10.030;2022-11-15T11:46:05;9.20;99.90
12746;DHT22;6437;53.686;10.030;2022-11-15T11:49:16;10.10;99.90
12746;DHT22;6437;53.686;10.030;2022-11-15T11:52:24;10.10;99.90
12746;DHT22;6437;53.686;10.030;2022-11-15T11:55:32;10.20;99.90
12746;DHT22;6437;53.686;10.030;2022-11-15T11:58:48;10.20;99.90
12746;DHT22;6437;53.686;10.030;2022-11-15T12:01:52;10.60;99.90
12746;DHT22;6437;53.686;10.030;2022-11-15T12:05:01;10.20;99.90
12746;DHT22;6437;53.686;10.030;2022-11-15T12:08:23;10.30;99.90
12746;DHT22;6437;53.686;10.030;2022-11-15T12:11:32;10.40;99.90
12746;DHT22;6437;53.686;10.030;2022-11-15T12:14:42;10.30;99.90
12746;DHT22;6437;53.686;10.030;2022-11-15T12:18:00;10.40;99.90
12746;DHT22;6437;53.686;10.030;2022-11-15T12:21:07;10.40;99.90
12746;DHT22;6437;53.686;10.030;2022-11-15T12:24:18;10.40;99.90
12746;DHT22;6437;53.686;10.030;2022-11-15T12:27:30;10.40;99.90
12746;DHT22;6437;53.686;10.030;2022-11-15T12:30:44;10.40;99.90
12746;DHT22;6437;53.686;10.030;2022-11-15T12:33:47;10.50;99.90
12746;DHT22;6437;53.686;10.030;2022-11-15T12:36:51;10.00;99.90
12746;DHT22;6437;53.686;10.030;2022-11-15T12:46:59;10.60;99.90
12746;DHT22;6437;53.686;10.030;2022-11-15T12:50:01;10.60;99.90
12746;DHT22;6437;53.686;10.030;2022-11-15T12:53:29;10.70;99.90
12746;DHT22;6437;53.686;10.030;2022-11-15T12:56:32;10.70;99.90
12746;DHT22;6437;53.686;10.030;2022-11-15T12:59:48;10.80;99.90
12746;DHT22;6437;53.686;10.030;2022-11-15T13:03:20;10.80;99.90
12746;DHT22;6437;53.686;10.030;2022-11-15T13:06:41;10.80;99.90
12746;DHT22;6437;53.686;10.030;2022-11-15T13:10:28;10.90;99.90
12746;DHT22;6437;53.686;10.030;2022-11-15T13:13:43;10.90;99.90
12746;DHT22;6437;53.686;10.030;2022-11-15T13:16:46;10.90;99.90
12746;DHT22;6437;53.686;10.030;2022-11-15T13:19:56;10.90;99.90
12746;DHT22;6437;53.686;10.030;2022-11-15T13:23:07;9.70;99.90
12746;DHT22;6437;53.686;10.030;2022-11-15T13:26:13;11.00;99.90
12746;DHT22;6437;53.686;10.030;2022-11-15T13:29:18;11.10;99.90
12746;DHT22;6437;53.686;10.030;2022-11-15T13:32:21;11.80;99.90
12746;DHT22;6437;53.686;10.030;2022-11-15T13:35:24;11.10;99.90
12746;DHT22;6437;53.686;10.030;2022-11-15T13:38:29;11.10;99.90
12746;DHT22;6437;53.686;10.030;2022-11-15T13:41:34;11.10;99.90
12746;DHT22;6437;53.686;10.030;2022-11-15T13:44:36;11.20;99.90
12746;DHT22;6437;53.686;10.030;2022-11-15T13:47:38;11.20;99.90
12746;DHT22;6437;53.686;10.030;2022-11-15T13:50:40;11.20;99.90
12746;DHT22;6437;53.686;10.030;2022-11-15T13:53:46;11.20;99.90
12746;DHT22;6437;53.686;10.030;2022-11-15T13:57:38;11.30;99.90
12746;DHT22;6437;53.686;10.030;2022-11-15T14:00:28;11.30;99.90
12746;DHT22;6437;53.686;10.030;2022-11-15T14:03:33;11.40;99.90
12746;DHT22;6437;53.686;10.030;2022-11-15T14:06:44;11.40;99.90
12746;DHT22;6437;53.686;10.030;2022-11-15T14:09:50;11.40;99.90
12746;DHT22;6437;53.686;10.030;2022-11-15T14:12:53;11.40;99.90
12746;DHT22;6437;53.686;10.030;2022-11-15T14:16:12;11.40;99.90
12746;DHT22;6437;53.686;10.030;2022-11-15T14:19:36;11.40;99.90
12746;DHT22;6437;53.686;10.030;2022-11-15T14:22:51;11.80;99.90
12746;DHT22;6437;53.686;10.030;2022-11-15T14:25:54;11.40;99.90
12746;DHT22;6437;53.686;10.030;2022-11-15T14:29:00;11.40;99.90
12746;DHT22;6437;53.686;10.030;2022-11-15T14:32:21;11.40;99.90
12746;DHT22;6437;53.686;10.030;2022-11-15T14:35:24;11.40;99.90
12746;DHT22;6437;53.686;10.030;2022-11-15T14:38:26;11.40;99.90
12746;DHT22;6437;53.686;10.030;2022-11-15T14:41:27;11.50;99.90
12746;DHT22;6437;53.686;10.030;2022-11-15T14:44:34;11.40;99.90
12746;DHT22;6437;53.686;10.030;2022-11-15T14:47:36;11.40;99.90
12746;DHT22;6437;53.686;10.030;2022-11-15T14:50:38;11.40;99.90
12746;DHT22;6437;53.686;10.030;2022-11-15T14:53:40;11.40;99.90
12746;DHT22;6437;53.686;10.030;2022-11-15T14:56:42;11.40;99.90
12746;DHT22;6437;53.686;10.030;2022-11-15T14:59:48;11.40;99.90
12746;DHT22;6437;53.686;10.030;2022-11-15T15:02:54;11.40;99.90
12746;DHT22;6437;53.686;10.030;2022-11-15T15:05:56;11.30;99.90
12746;DHT22;6437;53.686;10.030;2022-11-15T15:08:58;11.30;99.90
12746;DHT22;6437;53.686;10.030;2022-11-15T15:12:00;11.20;99.90
12746;DHT22;6437;53.686;10.030;2022-11-15T15:15:05;11.30;99.90
12746;DHT22;6437;53.686;10.030;2022-11-15T15:18:07;11.30;99.90
12746;DHT22;6437;53.686;10.030;2022-11-15T15:21:20;11.30;99.90
12746;DHT22;6437;53.686;10.030;2022-11-15T15:24:22;11.30;99.90
12746;DHT22;6437;53.686;10.030;2022-11-15T15:27:23;11.20;99.90
12746;DHT22;6437;53.686;10.030;2022-11-15T15:30:28;11.20;99.90
12746;DHT22;6437;53.686;10.030;2022-11-15T15:33:29;11.20;99.90
12746;DHT22;6437;53.686;10.030;2022-11-15T15:36:32;11.20;99.90
12746;DHT22;6437;53.686;10.030;2022-11-15T15:39:34;11.20;99.90
12746;DHT22;6437;53.686;10.030;2022-11-15T15:42:35;11.20;99.90
12746;DHT22;6437;53.686;10.030;2022-11-15T15:45:41;11.20;99.90
12746;DHT22;6437;53.686;10.030;2022-11-15T15:48:45;11.10;99.90
12746;DHT22;6437;53.686;10.030;2022-11-15T15:51:47;11.10;99.90
12746;DHT22;6437;53.686;10.030;2022-11-15T15:54:49;11.10;99.90
12746;DHT22;6437;53.686;10.030;2022-11-15T15:57:54;11.00;99.90
12746;DHT22;6437;53.686;10.030;2022-11-15T16:00:58;11.00;99.90
12746;DHT22;6437;53.686;10.030;2022-11-15T16:03:59;10.20;99.90
12746;DHT22;6437;53.686;10.030;2022-11-15T16:07:01;10.90;99.90
12746;DHT22;6437;53.686;10.030;2022-11-15T16:10:19;10.90;99.90
12746;DHT22;6437;53.686;10.030;2022-11-15T16:13:21;10.90;99.90
12746;DHT22;6437;53.686;10.030;2022-11-15T16:16:24;10.80;99.90
12746;DHT22;6437;53.686;10.030;2022-11-15T16:19:26;10.80;99.90
12746;DHT22;6437;53.686;10.030;2022-11-15T16:22:29;10.40;99.90
12746;DHT22;6437;53.686;10.030;2022-11-15T16:25:32;10.80;99.90
12746;DHT22;6437;53.686;10.030;2022-11-15T16:28:38;10.80;99.90
12746;DHT22;6437;53.686;10.030;2022-11-15T16:31:41;10.80;99.90
12746;DHT22;6437;53.686;10.030;2022-11-15T16:34:43;11.60;99.90
12746;DHT22;6437;53.686;10.030;2022-11-15T16:37:45;11.80;99.90
12746;DHT22;6437;53.686;10.030;2022-11-15T16:40:47;10.70;99.90
12746;DHT22;6437;53.686;10.030;2022-11-15T16:43:49;10.70;99.90
12746;DHT22;6437;53.686;10.030;2022-11-15T16:47:02;10.80;99.90
12746;DHT22;6437;53.686;10.030;2022-11-15T16:50:04;10.80;99.90
12746;DHT22;6437;53.686;10.030;2022-11-15T16:53:08;10.70;99.90
12746;DHT22;6437;53.686;10.030;2022-11-15T16:56:27;10.80;99.90
12746;DHT22;6437;53.686;10.030;2022-11-15T16:59:29;10.80;99.90
12746;DHT22;6437;53.686;10.030;2022-11-15T17:02:34;10.80;99.90
12746;DHT22;6437;53.686;10.030;2022-11-15T17:05:39;10.00;99.90
12746;DHT22;6437;53.686;10.030;2022-11-15T17:08:41;10.70;99.90
12746;DHT22;6437;53.686;10.030;2022-11-15T17:11:43;10.70;99.90
12746;DHT22;6437;53.686;10.030;2022-11-15T17:14:45;10.50;99.90
12746;DHT22;6437;53.686;10.030;2022-11-15T17:17:52;10.70;99.90
12746;DHT22;6437;53.686;10.030;2022-11-15T17:20:54;10.80;99.90
12746;DHT22;6437;53.686;10.030;2022-11-15T17:24:00;10.80;99.90
12746;DHT22;6437;53.686;10.030;2022-11-15T17:27:02;10.80;99.90
12746;DHT22;6437;53.686;10.030;2022-11-15T17:30:06;10.80;99.90
12746;DHT22;6437;53.686;10.030;2022-11-15T17:33:09;10.80;99.90
12746;DHT22;6437;53.686;10.030;2022-11-15T17:36:11;10.80;99.90
12746;DHT22;6437;53.686;10.030;2022-11-15T17:39:13;10.70;99.90
12746;DHT22;6437;53.686;10.030;2022-11-15T17:42:15;10.70;99.90
12746;DHT22;6437;53.686;10.030;2022-11-15T17:45:17;10.80;99.90
12746;DHT22;6437;53.686;10.030;2022-11-15T17:48:20;10.70;99.90
12746;DHT22;6437;53.686;10.030;2022-11-15T17:51:25;11.00;99.90
12746;DHT22;6437;53.686;10.030;2022-11-15T17:54:27;10.80;99.90
12746;DHT22;6437;53.686;10.030;2022-11-15T17:57:29;10.80;99.90
12746;DHT22;6437;53.686;10.030;2022-11-15T18:00:31;10.80;99.90
12746;DHT22;6437;53.686;10.030;2022-11-15T18:03:35;10.80;99.90
12746;DHT22;6437;53.686;10.030;2022-11-15T18:06:37;10.80;99.90
12746;DHT22;6437;53.686;10.030;2022-11-15T18:09:38;10.80;99.90
12746;DHT22;6437;53.686;10.030;2022-11-15T18:12:43;10.80;99.90
12746;DHT22;6437;53.686;10.030;2022-11-15T18:15:53;10.80;99.90
12746;DHT22;6437;53.686;10.030;2022-11-15T18:18:57;10.80;99.90
12746;DHT22;6437;53.686;10.030;2022-11-15T18:21:59;10.80;99.90
12746;DHT22;6437;53.686;10.030;2022-11-15T18:25:04;10.80;99.90
12746;DHT22;6437;53.686;10.030;2022-11-15T18:28:06;10.80;99.90
12746;DHT22;6437;53.686;10.030;2022-11-15T18:31:13;10.80;99.90
12746;DHT22;6437;53.686;10.030;2022-11-15T18:34:25;10.80;99.90
12746;DHT22;6437;53.686;10.030;2022-11-15T18:37:31;10.80;99.90
12746;DHT22;6437;53.686;10.030;2022-11-15T18:40:34;10.80;99.90
12746;DHT22;6437;53.686;10.030;2022-11-15T18:43:36;10.80;99.90
12746;DHT22;6437;53.686;10.030;2022-11-15T18:46:38;10.80;99.90
12746;DHT22;6437;53.686;10.030;2022-11-15T18:49:42;10.80;99.90
12746;DHT22;6437;53.686;10.030;2022-11-15T18:52:57;10.80;99.90
12746;DHT22;6437;53.686;10.030;2022-11-15T18:56:01;10.80;99.90
12746;DHT22;6437;53.686;10.030;2022-11-15T18:59:03;10.80;99.90
12746;DHT22;6437;53.686;10.030;2022-11-15T19:02:07;10.80;99.90
12746;DHT22;6437;53.686;10.030;2022-11-15T19:05:11;10.80;99.90
12746;DHT22;6437;53.686;10.030;2022-11-15T19:08:15;10.80;99.90
12746;DHT22;6437;53.686;10.030;2022-11-15T19:11:18;10.80;99.90
12746;DHT22;6437;53.686;10.030;2022-11-15T19:14:20;10.80;99.90
12746;DHT22;6437;53.686;10.030;2022-11-15T19:17:24;10.80;99.90
12746;DHT22;6437;53.686;10.030;2022-11-15T19:20:43;10.80;99.90
12746;DHT22;6437;53.686;10.030;2022-11-15T19:23:45;10.80;99.90
12746;DHT22;6437;53.686;10.030;2022-11-15T19:26:47;10.80;99.90
12746;DHT22;6437;53.686;10.030;2022-11-15T19:29:49;10.80;99.90
12746;DHT22;6437;53.686;10.030;2022-11-15T19:32:51;10.80;99.90
12746;DHT22;6437;53.686;10.030;2022-11-15T19:36:00;10.80;99.90
12746;DHT22;6437;53.686;10.030;2022-11-15T19:39:05;10.90;99.90
12746;DHT22;6437;53.686;10.030;2022-11-15T19:42:07;10.90;99.90
12746;DHT22;6437;53.686;10.030;2022-11-15T19:45:10;10.90;99.90
12746;DHT22;6437;53.686;10.030;2022-11-15T19:48:11;10.90;99.90
12746;DHT22;6437;53.686;10.030;2022-11-15T19:51:17;10.90;99.90